ADDS METAR Data INFO
IDs: Format: Raw Decoded Include TAF

Data at: 0025 UTC 23 Oct 2017

PAHO 222353Z 23008KT 10SM BKN042 04/M06 A2960 RMK AO2 SLP026 60000 T00391061 10039 21056 51023
PAHO 222253Z 23006KT 10SM FEW043 SCT050 03/M03 A2959 RMK AO2 SLP019 T00331033
PAHO 222153Z 03004KT 9SM SCT043 OVC050 02/M03 A2957 RMK AO2 SNB39E50 SLP013 P0000 T00221028
PAHO 222053Z 03004KT 10SM OVC050 01/M03 A2954 RMK AO2 SNE00B17E26 SLP003 P0000 60000 T00111028 53029
PAHO 221953Z 08005KT 8SM -SN BKN030 OVC037 01/M03 A2951 RMK AO2 SLP993 P0000 T00061033
PAHO 221942Z 07004KT 5SM -SN BKN030 OVC042 00/M04 A2950 RMK AO2 P0000 T00001039
PAHO 221935Z 06004KT 5SM -SN BKN029 BKN037 OVC045 00/M04 A2950 RMK AO2 P0000 T00001039
PAHO 221853Z 03006KT 3SM -SN SCT028 OVC037 M01/M04 A2948 RMK AO2 SNB30 SLP982 P0000 T10111044
PAHO 221847Z 05005KT 3SM -SN BKN028 BKN037 OVC060 M01/M04 A2947 RMK AO2 SNB30 P0000
PAHO 221753Z 02003KT 10SM FEW043 M05/M07 A2945 RMK AO2 SLP973 T10501072 11039 21067 53025
PAHO 221653Z 05004KT 10SM FEW070 M05/M08 A2942 RMK AO2 SLP963 T10501078
PAHO 221553Z 04005KT 10SM OVC070 M04/M07 A2940 RMK AO2 SLP955 T10391067
PAHO 221453Z 04006KT 10SM FEW070 M06/M08 A2938 RMK AO2 SLP949 T10561078 53015
PAHO 221353Z 05007KT 10SM CLR M04/M07 A2936 RMK AO2 SLP942 T10441072
PAHO 221253Z AUTO 03003KT 10SM CLR M06/M09 A2935 RMK AO2 SLP939 T10561089 TSNO
PAHO 221153Z AUTO 03003KT 10SM CLR M06/M09 A2933 RMK AO2 SLP934 T10561094 11022 21061 53015 TSNO
PAHO 221053Z AUTO 03005KT 10SM CLR M04/M08 A2932 RMK AO2 SLP928 T10391083 TSNO
PAHO 220953Z AUTO 33003KT 10SM OVC041 M03/M07 A2930 RMK AO2 SLP924 T10281072 TSNO
PAHO 220853Z AUTO 05006KT 10SM OVC044 M03/M08 A2929 RMK AO2 SLP919 T10331078 400111044 51008 TSNO
PAHO 220753Z AUTO 02004KT 10SM OVC046 M03/M08 A2929 RMK AO2 SLP918 T10331078 TSNO
PAHO 220653Z AUTO 03004KT 10SM OVC049 M04/M08 A2927 RMK AO2 SLP913 T10391083 TSNO
PAHO 220553Z AUTO 02004KT 10SM FEW041 BKN050 M03/M08 A2926 RMK AO2 SLP910 T10331083 10011 21044 53011 TSNO
PAHO 220453Z 02003KT 10SM CLR M02/M07 A2925 RMK AO2 SLP906 T10221072
PAHO 220353Z 01003KT 10SM SCT080 M03/M07 A2924 RMK AO2 SLP903 T10331072
PAHO 220253Z 00000KT 10SM BKN080 M02/M07 A2923 RMK AO2 SLP900 T10171067 55001
PAHO 220153Z 00000KT 10SM FEW080 00/M06 A2923 RMK AO2 SLP899 T00001061
PAHO 220053Z 18003KT 10SM BKN080 00/M07 A2923 RMK AO2 SLP898 T00001067
PAHO 212353Z 22003KT 10SM SCT050 OVC080 01/M07 A2923 RMK AO2 SLP900 T00111067 10011 21028 58007
PAHO 212253Z 19004KT 10SM OVC080 00/M07 A2924 RMK AO2 SLP902 T00001067
PAHO 212153Z 03004KT 10SM OVC080 M01/M07 A2925 RMK AO2 SLP907 T10061067
PAHO 212053Z 07005KT 10SM OVC080 M01/M07 A2926 RMK AO2 SLP908 T10111072 50000
PAHO 211953Z 07006KT 10SM OVC075 M02/M07 A2926 RMK AO2 SLP909 T10171072
PAHO 211853Z 06007KT 10SM OVC060 M02/M07 A2926 RMK AO2 SLP908 T10221072
PAHO 211753Z 05005KT 10SM OVC060 M03/M07 A2926 RMK AO2 SNB07E26 SLP908 P0000 60000 T10281072 11022 21039 51001
PAHO 211653Z 03003KT 10SM FEW041 OVC060 M02/M08 A2926 RMK AO2 SNB29E43 SLP908 P0000 T10221083
PAHO 211553Z 05003KT 10SM OVC060 M03/M10 A2925 RMK AO2 SLP907 T10281100
PAHO 211453Z 01003KT 10SM BKN060 OVC075 M03/M10 A2925 RMK AO2 SLP907 T10281100 56005
PAHO 211353Z 00000KT 10SM OVC070 M03/M11 A2926 RMK AO2 SLP908 T10281111
PAHO 211253Z AUTO 06005KT 10SM OVC070 M04/M11 A2926 RMK AO2 SLP910 T10391111 TSNO